sensor_id;sensor_type;location;lat;lon;timestamp;pressure;altitude;pressure_sealevel;temperature;humidity
44481;BME280;30184;42.018;23.670;2023-05-16T00:00:07;91398.03;;;11.65;100.00
44481;BME280;30184;42.018;23.670;2023-05-16T00:02:37;91404.78;;;11.60;100.00
44481;BME280;30184;42.018;23.670;2023-05-16T00:05:07;91434.28;;;11.49;100.00
44481;BME280;30184;42.018;23.670;2023-05-16T00:07:37;91388.13;;;11.36;100.00
44481;BME280;30184;42.018;23.670;2023-05-16T00:10:07;91377.25;;;11.36;100.00
44481;BME280;30184;42.018;23.670;2023-05-16T00:12:36;91337.88;;;11.06;100.00
44481;BME280;30184;42.018;23.670;2023-05-16T00:15:10;91392.44;;;11.46;100.00
44481;BME280;30184;42.018;23.670;2023-05-16T00:17:40;91392.13;;;11.44;100.00
44481;BME280;30184;42.018;23.670;2023-05-16T00:20:13;91380.19;;;11.29;100.00
44481;BME280;30184;42.018;23.670;2023-05-16T00:22:43;91387.13;;;11.43;100.00
44481;BME280;30184;42.018;23.670;2023-05-16T00:25:13;91395.69;;;11.41;100.00
44481;BME280;30184;42.018;23.670;2023-05-16T00:27:42;91350.91;;;11.11;100.00
44481;BME280;30184;42.018;23.670;2023-05-16T00:30:13;91384.53;;;11.39;100.00
44481;BME280;30184;42.018;23.670;2023-05-16T00:32:43;91383.00;;;11.38;100.00
44481;BME280;30184;42.018;23.670;2023-05-16T00:35:13;91383.53;;;11.33;100.00
44481;BME280;30184;42.018;23.670;2023-05-16T00:37:42;91348.28;;;11.08;100.00
44481;BME280;30184;42.018;23.670;2023-05-16T00:40:11;91372.34;;;11.31;100.00
44481;BME280;30184;42.018;23.670;2023-05-16T00:42:42;91358.59;;;11.13;100.00
44481;BME280;30184;42.018;23.670;2023-05-16T00:45:12;91372.34;;;11.31;100.00
44481;BME280;30184;42.018;23.670;2023-05-16T00:47:43;91370.88;;;11.30;100.00
44481;BME280;30184;42.018;23.670;2023-05-16T00:50:12;91385.63;;;11.29;100.00
44481;BME280;30184;42.018;23.670;2023-05-16T00:52:41;91368.56;;;11.29;100.00
44481;BME280;30184;42.018;23.670;2023-05-16T00:55:10;91366.28;;;11.27;100.00
44481;BME280;30184;42.018;23.670;2023-05-16T00:57:40;91362.38;;;11.28;100.00
44481;BME280;30184;42.018;23.670;2023-05-16T01:00:13;91327.44;;;11.05;100.00
44481;BME280;30184;42.018;23.670;2023-05-16T01:02:43;91352.72;;;11.27;100.00
44481;BME280;30184;42.018;23.670;2023-05-16T01:05:12;91310.19;;;10.99;100.00
44481;BME280;30184;42.018;23.670;2023-05-16T01:07:41;91353.03;;;11.29;100.00
44481;BME280;30184;42.018;23.670;2023-05-16T01:10:11;91356.50;;;11.30;100.00
44481;BME280;30184;42.018;23.670;2023-05-16T01:12:44;91331.75;;;11.15;100.00
44481;BME280;30184;42.018;23.670;2023-05-16T01:15:20;91331.13;;;11.11;100.00
44481;BME280;30184;42.018;23.670;2023-05-16T01:17:56;91342.94;;;11.30;100.00
44481;BME280;30184;42.018;23.670;2023-05-16T01:20:36;91343.91;;;11.23;100.00
44481;BME280;30184;42.018;23.670;2023-05-16T01:23:22;91340.31;;;11.26;100.00
44481;BME280;30184;42.018;23.670;2023-05-16T01:26:05;91311.03;;;11.08;100.00
44481;BME280;30184;42.018;23.670;2023-05-16T01:28:36;91186.78;;;10.31;100.00
44481;BME280;30184;42.018;23.670;2023-05-16T01:31:06;91305.59;;;11.21;100.00
44481;BME280;30184;42.018;23.670;2023-05-16T01:33:36;91320.56;;;11.26;100.00
44481;BME280;30184;42.018;23.670;2023-05-16T01:36:11;91270.91;;;10.91;100.00
44481;BME280;30184;42.018;23.670;2023-05-16T01:38:43;91317.06;;;11.25;100.00
44481;BME280;30184;42.018;23.670;2023-05-16T01:41:20;91319.78;;;11.25;100.00
44481;BME280;30184;42.018;23.670;2023-05-16T01:43:57;91324.59;;;11.21;100.00
44481;BME280;30184;42.018;23.670;2023-05-16T01:46:30;91317.19;;;11.21;100.00
44481;BME280;30184;42.018;23.670;2023-05-16T01:49:06;91312.50;;;11.22;100.00
44481;BME280;30184;42.018;23.670;2023-05-16T01:51:48;91313.72;;;11.21;100.00
44481;BME280;30184;42.018;23.670;2023-05-16T01:54:20;91274.13;;;10.98;100.00
44481;BME280;30184;42.018;23.670;2023-05-16T01:56:55;91297.75;;;11.23;100.00
44481;BME280;30184;42.018;23.670;2023-05-16T01:59:24;91293.50;;;11.22;100.00
44481;BME280;30184;42.018;23.670;2023-05-16T02:01:56;91274.53;;;11.09;100.00
44481;BME280;30184;42.018;23.670;2023-05-16T02:04:25;91283.31;;;11.13;100.00
44481;BME280;30184;42.018;23.670;2023-05-16T02:06:54;91286.56;;;11.21;100.00
44481;BME280;30184;42.018;23.670;2023-05-16T02:09:23;91279.16;;;11.21;100.00
44481;BME280;30184;42.018;23.670;2023-05-16T02:11:54;91253.19;;;10.99;100.00
44481;BME280;30184;42.018;23.670;2023-05-16T02:14:24;91287.31;;;11.21;100.00
44481;BME280;30184;42.018;23.670;2023-05-16T02:16:53;91281.88;;;11.21;100.00
44481;BME280;30184;42.018;23.670;2023-05-16T02:19:23;91259.28;;;10.90;100.00
44481;BME280;30184;42.018;23.670;2023-05-16T02:21:52;91307.25;;;11.06;100.00
44481;BME280;30184;42.018;23.670;2023-05-16T02:24:21;91281.56;;;11.19;100.00
44481;BME280;30184;42.018;23.670;2023-05-16T02:26:50;91281.88;;;11.21;100.00
44481;BME280;30184;42.018;23.670;2023-05-16T02:29:20;91279.91;;;11.22;100.00
44481;BME280;30184;42.018;23.670;2023-05-16T02:31:50;91288.06;;;11.22;100.00
44481;BME280;30184;42.018;23.670;2023-05-16T02:34:19;91279.47;;;11.23;100.00
44481;BME280;30184;42.018;23.670;2023-05-16T02:36:48;91278.72;;;11.23;100.00
44481;BME280;30184;42.018;23.670;2023-05-16T02:39:17;91285.69;;;11.24;100.00
44481;BME280;30184;42.018;23.670;2023-05-16T02:41:49;91288.41;;;11.24;100.00
44481;BME280;30184;42.018;23.670;2023-05-16T02:44:20;91282.97;;;11.24;100.00
44481;BME280;30184;42.018;23.670;2023-05-16T02:46:49;91283.72;;;11.25;100.00
44481;BME280;30184;42.018;23.670;2023-05-16T02:49:18;91288.06;;;11.22;100.00
44481;BME280;30184;42.018;23.670;2023-05-16T02:51:47;91288.06;;;11.22;100.00
44481;BME280;30184;42.018;23.670;2023-05-16T02:54:17;91295.03;;;11.23;100.00
44481;BME280;30184;42.018;23.670;2023-05-16T02:56:46;91301.22;;;11.23;100.00
44481;BME280;30184;42.018;23.670;2023-05-16T02:59:15;91297.75;;;11.23;100.00
44481;BME280;30184;42.018;23.670;2023-05-16T03:01:46;91290.34;;;11.23;100.00
44481;BME280;30184;42.018;23.670;2023-05-16T03:04:15;91298.94;;;11.22;100.00
44481;BME280;30184;42.018;23.670;2023-05-16T03:06:44;91141.03;;;10.07;100.00
44481;BME280;30184;42.018;23.670;2023-05-16T03:09:13;91299.69;;;11.22;100.00
44481;BME280;30184;42.018;23.670;2023-05-16T03:11:43;91303.59;;;11.21;100.00
44481;BME280;30184;42.018;23.670;2023-05-16T03:14:12;91281.06;;;11.12;100.00
44481;BME280;30184;42.018;23.670;2023-05-16T03:16:41;91305.44;;;11.25;100.00
44481;BME280;30184;42.018;23.670;2023-05-16T03:19:11;91292.31;;;11.23;100.00
44481;BME280;30184;42.018;23.670;2023-05-16T03:21:41;91275.63;;;11.12;100.00
44481;BME280;30184;42.018;23.670;2023-05-16T03:24:10;91275.84;;;11.05;100.00
44481;BME280;30184;42.018;23.670;2023-05-16T03:26:39;91298.50;;;11.23;100.00
44481;BME280;30184;42.018;23.670;2023-05-16T03:29:08;91272.59;;;11.10;100.00
44481;BME280;30184;42.018;23.670;2023-05-16T03:31:37;91242.56;;;10.92;100.00
44481;BME280;30184;42.018;23.670;2023-05-16T03:34:07;91243.09;;;10.99;100.00
44481;BME280;30184;42.018;23.670;2023-05-16T03:36:38;91220.63;;;10.86;100.00
44481;BME280;30184;42.018;23.670;2023-05-16T03:39:09;91305.97;;;10.98;100.00
44481;BME280;30184;42.018;23.670;2023-05-16T03:41:38;91287.19;;;11.25;100.00
44481;BME280;30184;42.018;23.670;2023-05-16T03:44:07;91286.88;;;11.23;100.00
44481;BME280;30184;42.018;23.670;2023-05-16T03:46:36;91280.50;;;11.17;100.00
44481;BME280;30184;42.018;23.670;2023-05-16T03:49:05;91292.97;;;11.27;100.00
44481;BME280;30184;42.018;23.670;2023-05-16T03:51:34;91284.66;;;11.31;100.00
44481;BME280;30184;42.018;23.670;2023-05-16T03:54:05;91294.66;;;11.34;100.00
44481;BME280;30184;42.018;23.670;2023-05-16T03:56:34;91290.31;;;11.36;100.00
44481;BME280;30184;42.018;23.670;2023-05-16T03:59:03;91296.69;;;11.42;100.00
44481;BME280;30184;42.018;23.670;2023-05-16T04:01:32;91299.31;;;11.46;100.00
44481;BME280;30184;42.018;23.670;2023-05-16T04:04:01;91291.91;;;11.46;100.00
44481;BME280;30184;42.018;23.670;2023-05-16T04:06:30;91295.72;;;11.49;100.00
44481;BME280;30184;42.018;23.670;2023-05-16T04:08:59;91290.13;;;11.52;100.00
44481;BME280;30184;42.018;23.670;2023-05-16T04:11:29;91286.53;;;11.55;100.00
44481;BME280;30184;42.018;23.670;2023-05-16T04:13:59;91283.50;;;11.53;100.00
44481;BME280;30184;42.018;23.670;2023-05-16T04:16:28;91293.25;;;11.64;100.00
44481;BME280;30184;42.018;23.670;2023-05-16T04:18:57;91335.38;;;11.68;100.00
44481;BME280;30184;42.018;23.670;2023-05-16T04:21:26;91286.94;;;11.67;100.00
44481;BME280;30184;42.018;23.670;2023-05-16T04:23:55;91252.34;;;11.45;100.00
44481;BME280;30184;42.018;23.670;2023-05-16T04:26:24;91292.31;;;11.79;100.00
44481;BME280;30184;42.018;23.670;2023-05-16T04:28:55;91292.19;;;11.83;100.00
44481;BME280;30184;42.018;23.670;2023-05-16T04:31:25;91265.19;;;11.67;100.00
44481;BME280;30184;42.018;23.670;2023-05-16T04:33:54;91287.56;;;11.92;100.00
44481;BME280;30184;42.018;23.670;2023-05-16T04:36:24;91263.75;;;11.75;100.00
44481;BME280;30184;42.018;23.670;2023-05-16T04:38:56;91282.94;;;12.02;100.00
44481;BME280;30184;42.018;23.670;2023-05-16T04:41:25;91283.13;;;12.08;100.00
44481;BME280;30184;42.018;23.670;2023-05-16T04:43:56;91299.63;;;12.13;100.00
44481;BME280;30184;42.018;23.670;2023-05-16T04:46:25;91301.00;;;12.18;100.00
44481;BME280;30184;42.018;23.670;2023-05-16T04:48:54;91298.16;;;12.21;100.00
44481;BME280;30184;42.018;23.670;2023-05-16T04:51:23;91287.56;;;12.23;99.49
44481;BME280;30184;42.018;23.670;2023-05-16T04:53:52;91273.69;;;12.21;98.86
44481;BME280;30184;42.018;23.670;2023-05-16T04:56:21;91281.28;;;12.36;99.03
44481;BME280;30184;42.018;23.670;2023-05-16T04:58:51;91301.88;;;12.37;98.89
44481;BME280;30184;42.018;23.670;2023-05-16T05:01:22;91272.75;;;12.55;98.27
44481;BME280;30184;42.018;23.670;2023-05-16T05:03:51;91274.31;;;12.65;96.79
44481;BME280;30184;42.018;23.670;2023-05-16T05:06:20;91263.59;;;12.80;96.41
44481;BME280;30184;42.018;23.670;2023-05-16T05:08:49;91253.81;;;12.92;95.16
44481;BME280;30184;42.018;23.670;2023-05-16T05:11:19;91259.88;;;13.05;94.18
44481;BME280;30184;42.018;23.670;2023-05-16T05:13:48;91265.97;;;13.18;94.01
44481;BME280;30184;42.018;23.670;2023-05-16T05:16:18;91261.16;;;13.31;92.90
44481;BME280;30184;42.018;23.670;2023-05-16T05:18:49;91236.44;;;13.35;91.80
44481;BME280;30184;42.018;23.670;2023-05-16T05:21:18;91245.56;;;13.50;90.23
44481;BME280;30184;42.018;23.670;2023-05-16T05:23:48;91230.41;;;13.58;89.36
44481;BME280;30184;42.018;23.670;2023-05-16T05:26:17;91256.75;;;13.61;90.27
44481;BME280;30184;42.018;23.670;2023-05-16T05:28:48;91245.53;;;13.77;88.64
44481;BME280;30184;42.018;23.670;2023-05-16T05:31:24;91248.41;;;13.83;87.93
44481;BME280;30184;42.018;23.670;2023-05-16T05:33:54;91221.72;;;13.96;88.66
44481;BME280;30184;42.018;23.670;2023-05-16T05:36:24;91227.59;;;14.04;88.04
44481;BME280;30184;42.018;23.670;2023-05-16T05:38:53;91215.91;;;14.12;87.09
44481;BME280;30184;42.018;23.670;2023-05-16T05:41:22;91212.84;;;14.19;86.37
44481;BME280;30184;42.018;23.670;2023-05-16T05:43:51;91224.47;;;14.29;86.25
44481;BME280;30184;42.018;23.670;2023-05-16T05:46:20;91226.41;;;14.38;86.34
44481;BME280;30184;42.018;23.670;2023-05-16T05:48:49;90978.78;;;12.83;85.38
44481;BME280;30184;42.018;23.670;2023-05-16T05:51:20;91214.41;;;14.53;85.94
44481;BME280;30184;42.018;23.670;2023-05-16T05:53:49;91215.88;;;14.64;85.74
44481;BME280;30184;42.018;23.670;2023-05-16T05:56:18;91225.41;;;14.68;85.34
44481;BME280;30184;42.018;23.670;2023-05-16T05:58:47;91223.09;;;14.76;84.87
44481;BME280;30184;42.018;23.670;2023-05-16T06:01:17;91220.59;;;14.87;84.90
44481;BME280;30184;42.018;23.670;2023-05-16T06:03:47;91211.59;;;14.96;84.61
44481;BME280;30184;42.018;23.670;2023-05-16T06:06:16;91211.06;;;15.06;84.44
44481;BME280;30184;42.018;23.670;2023-05-16T06:08:47;91214.66;;;15.12;82.63
44481;BME280;30184;42.018;23.670;2023-05-16T06:11:17;91220.66;;;15.25;81.83
44481;BME280;30184;42.018;23.670;2023-05-16T06:13:46;91215.41;;;15.37;81.72
44481;BME280;30184;42.018;23.670;2023-05-16T06:16:15;91218.78;;;15.55;81.12
44481;BME280;30184;42.018;23.670;2023-05-16T06:18:44;91229.28;;;15.72;80.36
44481;BME280;30184;42.018;23.670;2023-05-16T06:21:15;91228.91;;;15.79;79.45
44481;BME280;30184;42.018;23.670;2023-05-16T06:23:44;91220.22;;;15.95;78.61
44481;BME280;30184;42.018;23.670;2023-05-16T06:26:15;91221.31;;;16.12;78.95
44481;BME280;30184;42.018;23.670;2023-05-16T06:28:43;91217.03;;;16.26;77.61
44481;BME280;30184;42.018;23.670;2023-05-16T06:31:12;91202.31;;;16.38;76.06
44481;BME280;30184;42.018;23.670;2023-05-16T06:33:41;91198.88;;;16.43;74.82
44481;BME280;30184;42.018;23.670;2023-05-16T06:36:11;91191.22;;;16.62;75.88
44481;BME280;30184;42.018;23.670;2023-05-16T06:38:40;91190.22;;;16.79;75.85
44481;BME280;30184;42.018;23.670;2023-05-16T06:41:09;91193.41;;;16.93;75.23
44481;BME280;30184;42.018;23.670;2023-05-16T06:43:40;91097.34;;;16.61;74.29
44481;BME280;30184;42.018;23.670;2023-05-16T06:46:10;91172.03;;;17.17;74.10
44481;BME280;30184;42.018;23.670;2023-05-16T06:48:39;91173.06;;;17.20;73.63
44481;BME280;30184;42.018;23.670;2023-05-16T06:51:08;91178.06;;;17.41;73.64
44481;BME280;30184;42.018;23.670;2023-05-16T06:53:37;91185.50;;;17.61;72.83
44481;BME280;30184;42.018;23.670;2023-05-16T06:56:07;91210.16;;;17.76;70.20
44481;BME280;30184;42.018;23.670;2023-05-16T06:58:36;91167.88;;;17.88;69.39
44481;BME280;30184;42.018;23.670;2023-05-16T07:01:07;91165.72;;;17.98;67.63
44481;BME280;30184;42.018;23.670;2023-05-16T07:03:36;91062.16;;;16.60;67.05
44481;BME280;30184;42.018;23.670;2023-05-16T07:06:05;91191.31;;;18.15;67.38
44481;BME280;30184;42.018;23.670;2023-05-16T07:08:35;91165.03;;;18.34;67.44
44481;BME280;30184;42.018;23.670;2023-05-16T07:11:05;91171.16;;;18.55;67.62
44481;BME280;30184;42.018;23.670;2023-05-16T07:13:34;91157.31;;;18.70;64.38
44481;BME280;30184;42.018;23.670;2023-05-16T07:16:03;91110.94;;;18.51;65.22
44481;BME280;30184;42.018;23.670;2023-05-16T07:18:35;91135.44;;;18.92;65.43
44481;BME280;30184;42.018;23.670;2023-05-16T07:21:05;91128.97;;;19.00;64.59
44481;BME280;30184;42.018;23.670;2023-05-16T07:23:34;91119.78;;;19.15;64.91
44481;BME280;30184;42.018;23.670;2023-05-16T07:26:03;90981.19;;;18.25;65.64
44481;BME280;30184;42.018;23.670;2023-05-16T07:28:32;91113.13;;;19.38;64.81
44481;BME280;30184;42.018;23.670;2023-05-16T07:31:01;91117.91;;;19.43;64.27
44481;BME280;30184;42.018;23.670;2023-05-16T07:36:40;91113.94;;;19.50;63.85
44481;BME280;30184;42.018;23.670;2023-05-16T07:39:09;91113.97;;;19.55;64.45
44481;BME280;30184;42.018;23.670;2023-05-16T07:41:38;91110.97;;;19.70;64.52
44481;BME280;30184;42.018;23.670;2023-05-16T07:44:08;91121.75;;;19.85;64.36
44481;BME280;30184;42.018;23.670;2023-05-16T07:46:37;91110.53;;;19.83;63.95
44481;BME280;30184;42.018;23.670;2023-05-16T07:49:06;91100.50;;;20.02;63.24
44481;BME280;30184;42.018;23.670;2023-05-16T07:51:36;91046.66;;;19.84;62.21
44481;BME280;30184;42.018;23.670;2023-05-16T07:54:06;91089.72;;;20.21;61.97
44481;BME280;30184;42.018;23.670;2023-05-16T07:56:35;91095.75;;;20.13;60.33
44481;BME280;30184;42.018;23.670;2023-05-16T07:59:05;91089.25;;;20.17;60.33
44481;BME280;30184;42.018;23.670;2023-05-16T08:01:34;91091.00;;;20.20;60.81
44481;BME280;30184;42.018;23.670;2023-05-16T08:04:03;91089.25;;;20.11;60.75
44481;BME280;30184;42.018;23.670;2023-05-16T08:06:33;91101.03;;;20.17;61.40
44481;BME280;30184;42.018;23.670;2023-05-16T08:09:02;91111.03;;;20.09;61.41
44481;BME280;30184;42.018;23.670;2023-05-16T08:11:33;91103.25;;;20.13;60.97
44481;BME280;30184;42.018;23.670;2023-05-16T08:14:03;91095.25;;;20.04;61.61
44481;BME280;30184;42.018;23.670;2023-05-16T08:16:32;91103.03;;;20.11;62.57
44481;BME280;30184;42.018;23.670;2023-05-16T08:19:01;91103.53;;;20.26;61.79
44481;BME280;30184;42.018;23.670;2023-05-16T08:21:30;91108.06;;;20.35;61.56
44481;BME280;30184;42.018;23.670;2023-05-16T08:23:59;91100.28;;;20.39;60.96
44481;BME280;30184;42.018;23.670;2023-05-16T08:26:28;91101.78;;;20.34;60.20
44481;BME280;30184;42.018;23.670;2023-05-16T08:28:59;91105.00;;;20.22;62.63
44481;BME280;30184;42.018;23.670;2023-05-16T08:31:28;91098.28;;;20.17;62.64
44481;BME280;30184;42.018;23.670;2023-05-16T08:33:57;91102.78;;;20.20;61.99
44481;BME280;30184;42.018;23.670;2023-05-16T08:36:28;91118.03;;;20.16;63.72
44481;BME280;30184;42.018;23.670;2023-05-16T08:38:58;91120.81;;;20.10;62.58
44481;BME280;30184;42.018;23.670;2023-05-16T08:41:27;91117.53;;;19.95;62.32
44481;BME280;30184;42.018;23.670;2023-05-16T08:43:58;91089.09;;;19.38;62.49
44481;BME280;30184;42.018;23.670;2023-05-16T08:46:28;91117.97;;;19.65;63.36
44481;BME280;30184;42.018;23.670;2023-05-16T08:48:58;91140.22;;;19.51;63.60
44481;BME280;30184;42.018;23.670;2023-05-16T08:51:31;91134.41;;;19.43;64.62
44481;BME280;30184;42.018;23.670;2023-05-16T08:54:03;91132.63;;;19.40;64.46
44481;BME280;30184;42.018;23.670;2023-05-16T08:56:35;91139.13;;;19.31;64.39
44481;BME280;30184;42.018;23.670;2023-05-16T08:59:06;91164.63;;;19.26;65.48
44481;BME280;30184;42.018;23.670;2023-05-16T09:01:35;91116.72;;;18.96;67.61
44481;BME280;30184;42.018;23.670;2023-05-16T09:04:06;91155.06;;;19.22;68.03
44481;BME280;30184;42.018;23.670;2023-05-16T09:06:36;91152.81;;;19.20;67.11
44481;BME280;30184;42.018;23.670;2023-05-16T09:09:05;91144.31;;;19.18;65.84
44481;BME280;30184;42.018;23.670;2023-05-16T09:11:39;91080.81;;;18.62;65.95
44481;BME280;30184;42.018;23.670;2023-05-16T09:14:11;91134.72;;;19.02;64.76
44481;BME280;30184;42.018;23.670;2023-05-16T09:16:40;91114.97;;;18.98;66.32
44481;BME280;30184;42.018;23.670;2023-05-16T09:19:11;91135.00;;;19.10;65.58
44481;BME280;30184;42.018;23.670;2023-05-16T09:21:41;91133.78;;;19.11;65.09
44481;BME280;30184;42.018;23.670;2023-05-16T09:24:10;91144.50;;;19.09;65.20
44481;BME280;30184;42.018;23.670;2023-05-16T09:26:39;91142.03;;;19.11;64.27
44481;BME280;30184;42.018;23.670;2023-05-16T09:29:11;91130.03;;;19.14;63.66
44481;BME280;30184;42.018;23.670;2023-05-16T09:31:40;91152.38;;;19.27;64.06
44481;BME280;30184;42.018;23.670;2023-05-16T09:34:09;91157.13;;;19.32;63.47
44481;BME280;30184;42.018;23.670;2023-05-16T09:36:39;91159.63;;;19.30;62.23
44481;BME280;30184;42.018;23.670;2023-05-16T09:39:14;91156.91;;;19.36;61.23
44481;BME280;30184;42.018;23.670;2023-05-16T09:41:44;91092.25;;;19.09;60.77
44481;BME280;30184;42.018;23.670;2023-05-16T09:44:17;91138.47;;;19.53;62.24
44481;BME280;30184;42.018;23.670;2023-05-16T09:46:46;91049.75;;;19.05;62.85
44481;BME280;30184;42.018;23.670;2023-05-16T09:49:18;91122.50;;;19.68;62.12
44481;BME280;30184;42.018;23.670;2023-05-16T09:51:47;91113.97;;;19.66;62.39
44481;BME280;30184;42.018;23.670;2023-05-16T09:54:28;91075.59;;;19.35;61.98
44481;BME280;30184;42.018;23.670;2023-05-16T09:56:59;91103.94;;;19.52;61.98
44481;BME280;30184;42.018;23.670;2023-05-16T09:59:34;91108.69;;;19.52;60.88
44481;BME280;30184;42.018;23.670;2023-05-16T10:02:05;91121.44;;;19.49;61.42
44481;BME280;30184;42.018;23.670;2023-05-16T10:04:35;91110.63;;;19.40;60.67
44481;BME280;30184;42.018;23.670;2023-05-16T10:07:05;91118.66;;;19.44;63.08
44481;BME280;30184;42.018;23.670;2023-05-16T10:09:38;91106.38;;;19.39;62.44
44481;BME280;30184;42.018;23.670;2023-05-16T10:12:09;91103.16;;;19.46;61.31
44481;BME280;30184;42.018;23.670;2023-05-16T10:14:44;91112.44;;;19.49;60.52
44481;BME280;30184;42.018;23.670;2023-05-16T10:17:17;91100.38;;;19.35;61.94
44481;BME280;30184;42.018;23.670;2023-05-16T10:19:47;91098.06;;;19.22;64.04
44481;BME280;30184;42.018;23.670;2023-05-16T10:22:18;91035.63;;;18.69;64.41
44481;BME280;30184;42.018;23.670;2023-05-16T10:24:54;91118.59;;;19.32;63.57
44481;BME280;30184;42.018;23.670;2023-05-16T10:27:26;91117.41;;;19.45;63.35
44481;BME280;30184;42.018;23.670;2023-05-16T10:29:57;91112.22;;;19.63;61.79
44481;BME280;30184;42.018;23.670;2023-05-16T10:32:27;91099.75;;;19.79;62.05
44481;BME280;30184;42.018;23.670;2023-05-16T10:34:56;91105.25;;;19.96;61.32
44481;BME280;30184;42.018;23.670;2023-05-16T10:37:30;91095.78;;;20.19;59.98
44481;BME280;30184;42.018;23.670;2023-05-16T10:40:00;91049.19;;;19.99;60.00
44481;BME280;30184;42.018;23.670;2023-05-16T10:42:32;91079.75;;;20.34;58.95
44481;BME280;30184;42.018;23.670;2023-05-16T10:45:18;91090.00;;;20.51;59.34
44481;BME280;30184;42.018;23.670;2023-05-16T10:47:52;91072.94;;;20.58;58.84
44481;BME280;30184;42.018;23.670;2023-05-16T10:50:35;91076.72;;;20.66;58.73
44481;BME280;30184;42.018;23.670;2023-05-16T10:53:17;90960.31;;;19.87;58.20
44481;BME280;30184;42.018;23.670;2023-05-16T10:56:05;91085.75;;;20.44;57.90
44481;BME280;30184;42.018;23.670;2023-05-16T10:58:43;91078.22;;;20.33;58.49
44481;BME280;30184;42.018;23.670;2023-05-16T11:01:17;91087.50;;;20.47;59.12
44481;BME280;30184;42.018;23.670;2023-05-16T11:04:06;91100.53;;;20.46;58.32
44481;BME280;30184;42.018;23.670;2023-05-16T11:06:49;91091.53;;;20.46;58.85
44481;BME280;30184;42.018;23.670;2023-05-16T11:09:24;91106.28;;;20.43;59.78
44481;BME280;30184;42.018;23.670;2023-05-16T11:11:57;91113.03;;;20.31;62.17
44481;BME280;30184;42.018;23.670;2023-05-16T11:14:27;91117.81;;;20.25;62.57
44481;BME280;30184;42.018;23.670;2023-05-16T11:17:01;91107.28;;;20.06;61.08
44481;BME280;30184;42.018;23.670;2023-05-16T11:19:33;91096.75;;;19.99;62.73
44481;BME280;30184;42.018;23.670;2023-05-16T11:22:11;91100.50;;;19.91;63.09
44481;BME280;30184;42.018;23.670;2023-05-16T11:24:51;91107.50;;;19.81;63.43
44481;BME280;30184;42.018;23.670;2023-05-16T11:27:23;91109.00;;;19.82;67.21
44481;BME280;30184;42.018;23.670;2023-05-16T11:29:54;91099.97;;;19.75;67.97
44481;BME280;30184;42.018;23.670;2023-05-16T11:32:25;91095.19;;;19.54;67.72
44481;BME280;30184;42.018;23.670;2023-05-16T11:34:55;91091.72;;;19.75;66.68
44481;BME280;30184;42.018;23.670;2023-05-16T11:37:26;91094.22;;;19.79;64.73
44481;BME280;30184;42.018;23.670;2023-05-16T11:39:58;91097.25;;;19.81;66.02
44481;BME280;30184;42.018;23.670;2023-05-16T11:42:29;91120.25;;;19.84;67.16
44481;BME280;30184;42.018;23.670;2023-05-16T11:45:05;91045.16;;;19.61;67.51
44481;BME280;30184;42.018;23.670;2023-05-16T11:47:37;91088.72;;;19.85;67.19
44481;BME280;30184;42.018;23.670;2023-05-16T11:50:10;91072.22;;;20.07;67.17
44481;BME280;30184;42.018;23.670;2023-05-16T11:52:43;91081.47;;;20.15;67.50
44481;BME280;30184;42.018;23.670;2023-05-16T11:55:13;91008.88;;;19.96;65.57
44481;BME280;30184;42.018;23.670;2023-05-16T11:57:49;91055.44;;;20.16;63.94
44481;BME280;30184;42.018;23.670;2023-05-16T12:00:20;91050.19;;;20.07;64.16
44481;BME280;30184;42.018;23.670;2023-05-16T12:02:53;91052.94;;;19.96;64.84
44481;BME280;30184;42.018;23.670;2023-05-16T12:05:23;90969.78;;;19.19;64.80
44481;BME280;30184;42.018;23.670;2023-05-16T12:07:55;91040.66;;;19.63;65.92
44481;BME280;30184;42.018;23.670;2023-05-16T12:10:24;91041.69;;;19.88;66.22
44481;BME280;30184;42.018;23.670;2023-05-16T12:12:54;90994.34;;;19.45;68.03
44481;BME280;30184;42.018;23.670;2023-05-16T12:15:24;91045.66;;;19.65;71.42
44481;BME280;30184;42.018;23.670;2023-05-16T12:17:55;91040.38;;;19.56;72.04
44481;BME280;30184;42.018;23.670;2023-05-16T12:20:25;91012.50;;;19.09;72.96
44481;BME280;30184;42.018;23.670;2023-05-16T12:22:56;91046.84;;;19.36;74.53
44481;BME280;30184;42.018;23.670;2023-05-16T12:25:27;91043.81;;;19.23;74.47
44481;BME280;30184;42.018;23.670;2023-05-16T12:27:57;91050.31;;;19.25;74.78
44481;BME280;30184;42.018;23.670;2023-05-16T12:30:28;91054.28;;;19.19;75.02
44481;BME280;30184;42.018;23.670;2023-05-16T12:33:00;91032.31;;;19.30;74.19
44481;BME280;30184;42.018;23.670;2023-05-16T12:35:32;91057.41;;;19.65;72.85
44481;BME280;30184;42.018;23.670;2023-05-16T12:38:03;91037.66;;;19.95;70.03
44481;BME280;30184;42.018;23.670;2023-05-16T12:40:35;91047.19;;;20.16;69.13
44481;BME280;30184;42.018;23.670;2023-05-16T12:43:12;91019.88;;;20.18;71.01
44481;BME280;30184;42.018;23.670;2023-05-16T12:45:48;91015.63;;;20.06;69.88
44481;BME280;30184;42.018;23.670;2023-05-16T12:48:20;91082.47;;;20.23;70.72
44481;BME280;30184;42.018;23.670;2023-05-16T12:50:49;91020.88;;;19.93;69.58
44481;BME280;30184;42.018;23.670;2023-05-16T12:53:20;91039.44;;;20.09;69.41
44481;BME280;30184;42.018;23.670;2023-05-16T12:55:48;91031.41;;;19.94;70.64
44481;BME280;30184;42.018;23.670;2023-05-16T12:58:18;91048.69;;;19.95;70.68
44481;BME280;30184;42.018;23.670;2023-05-16T13:00:47;91057.22;;;19.91;70.52
44481;BME280;30184;42.018;23.670;2023-05-16T13:03:17;91048.44;;;19.82;70.50
44481;BME280;30184;42.018;23.670;2023-05-16T13:05:49;91049.44;;;19.79;71.23